sensor_id;sensor_type;location;lat;lon;timestamp;P1;durP1;ratioP1;P2;durP2;ratioP2
23346;SDS011;36852;45.466;11.066;2023-02-02T00:01:49;57.10;;;31.62;;
23346;SDS011;36852;45.466;11.066;2023-02-02T00:04:24;58.68;;;33.18;;
23346;SDS011;36852;45.466;11.066;2023-02-02T00:06:54;61.05;;;33.05;;
23346;SDS011;36852;45.466;11.066;2023-02-02T00:09:26;67.05;;;36.50;;
23346;SDS011;36852;45.466;11.066;2023-02-02T00:11:58;70.90;;;39.80;;
23346;SDS011;36852;45.466;11.066;2023-02-02T00:14:27;69.90;;;38.15;;
23346;SDS011;36852;45.466;11.066;2023-02-02T00:16:55;78.28;;;39.88;;
23346;SDS011;36852;45.466;11.066;2023-02-02T00:19:25;69.47;;;38.20;;
23346;SDS011;36852;45.466;11.066;2023-02-02T00:21:55;68.85;;;38.05;;
23346;SDS011;36852;45.466;11.066;2023-02-02T00:24:23;76.02;;;40.17;;
23346;SDS011;36852;45.466;11.066;2023-02-02T00:26:53;72.05;;;41.50;;
23346;SDS011;36852;45.466;11.066;2023-02-02T00:29:23;70.03;;;37.73;;
23346;SDS011;36852;45.466;11.066;2023-02-02T00:31:53;69.82;;;39.92;;
23346;SDS011;36852;45.466;11.066;2023-02-02T00:34:22;69.55;;;38.13;;
23346;SDS011;36852;45.466;11.066;2023-02-02T00:37:04;72.32;;;39.63;;
23346;SDS011;36852;45.466;11.066;2023-02-02T00:39:31;69.60;;;39.85;;
23346;SDS011;36852;45.466;11.066;2023-02-02T00:42:00;67.62;;;37.33;;
23346;SDS011;36852;45.466;11.066;2023-02-02T00:44:37;67.30;;;37.67;;
23346;SDS011;36852;45.466;11.066;2023-02-02T00:49:59;79.97;;;44.10;;
23346;SDS011;36852;45.466;11.066;2023-02-02T00:52:27;89.07;;;47.43;;
23346;SDS011;36852;45.466;11.066;2023-02-02T00:54:55;90.42;;;50.03;;
23346;SDS011;36852;45.466;11.066;2023-02-02T00:57:24;92.42;;;50.30;;
23346;SDS011;36852;45.466;11.066;2023-02-02T00:59:52;96.30;;;52.30;;
23346;SDS011;36852;45.466;11.066;2023-02-02T01:02:20;94.40;;;48.60;;
23346;SDS011;36852;45.466;11.066;2023-02-02T01:04:47;94.60;;;50.05;;
23346;SDS011;36852;45.466;11.066;2023-02-02T01:07:16;99.67;;;50.88;;
23346;SDS011;36852;45.466;11.066;2023-02-02T01:09:43;84.42;;;46.98;;
23346;SDS011;36852;45.466;11.066;2023-02-02T01:12:11;72.78;;;38.98;;
23346;SDS011;36852;45.466;11.066;2023-02-02T01:14:39;71.90;;;39.15;;
23346;SDS011;36852;45.466;11.066;2023-02-02T01:17:07;71.75;;;40.08;;
23346;SDS011;36852;45.466;11.066;2023-02-02T01:19:35;83.55;;;44.00;;
23346;SDS011;36852;45.466;11.066;2023-02-02T01:22:03;79.03;;;42.27;;
23346;SDS011;36852;45.466;11.066;2023-02-02T01:24:34;92.45;;;49.75;;
23346;SDS011;36852;45.466;11.066;2023-02-02T01:27:02;98.12;;;51.08;;
23346;SDS011;36852;45.466;11.066;2023-02-02T01:29:30;98.65;;;52.08;;
23346;SDS011;36852;45.466;11.066;2023-02-02T01:31:57;89.30;;;50.17;;
23346;SDS011;36852;45.466;11.066;2023-02-02T01:34:26;93.10;;;49.75;;
23346;SDS011;36852;45.466;11.066;2023-02-02T01:36:53;80.50;;;43.02;;
23346;SDS011;36852;45.466;11.066;2023-02-02T01:39:21;82.08;;;41.90;;
23346;SDS011;36852;45.466;11.066;2023-02-02T01:41:49;71.02;;;38.58;;
23346;SDS011;36852;45.466;11.066;2023-02-02T01:47:28;73.35;;;39.98;;
23346;SDS011;36852;45.466;11.066;2023-02-02T01:49:57;79.87;;;41.20;;
23346;SDS011;36852;45.466;11.066;2023-02-02T01:52:26;86.25;;;47.30;;
23346;SDS011;36852;45.466;11.066;2023-02-02T01:54:58;85.97;;;45.15;;
23346;SDS011;36852;45.466;11.066;2023-02-02T01:57:32;88.05;;;47.38;;
23346;SDS011;36852;45.466;11.066;2023-02-02T02:00:06;94.87;;;48.83;;
23346;SDS011;36852;45.466;11.066;2023-02-02T02:02:40;86.70;;;46.23;;
23346;SDS011;36852;45.466;11.066;2023-02-02T02:05:12;79.70;;;44.30;;
23346;SDS011;36852;45.466;11.066;2023-02-02T02:07:43;82.95;;;45.78;;
23346;SDS011;36852;45.466;11.066;2023-02-02T02:10:15;78.62;;;41.98;;
23346;SDS011;36852;45.466;11.066;2023-02-02T02:12:45;69.70;;;37.65;;
23346;SDS011;36852;45.466;11.066;2023-02-02T02:15:14;74.10;;;38.75;;
23346;SDS011;36852;45.466;11.066;2023-02-02T02:18:07;67.05;;;35.95;;
23346;SDS011;36852;45.466;11.066;2023-02-02T02:23:59;61.37;;;34.92;;
23346;SDS011;36852;45.466;11.066;2023-02-02T02:35:12;69.12;;;36.15;;
23346;SDS011;36852;45.466;11.066;2023-02-02T02:37:56;73.67;;;39.03;;
23346;SDS011;36852;45.466;11.066;2023-02-02T02:43:05;61.60;;;33.80;;
23346;SDS011;36852;45.466;11.066;2023-02-02T02:45:37;62.30;;;33.67;;
23346;SDS011;36852;45.466;11.066;2023-02-02T02:48:07;82.05;;;41.68;;
23346;SDS011;36852;45.466;11.066;2023-02-02T02:50:36;83.92;;;41.98;;
23346;SDS011;36852;45.466;11.066;2023-02-02T02:53:05;75.52;;;39.90;;
23346;SDS011;36852;45.466;11.066;2023-02-02T02:55:39;63.58;;;35.65;;
23346;SDS011;36852;45.466;11.066;2023-02-02T02:58:17;58.92;;;33.85;;
23346;SDS011;36852;45.466;11.066;2023-02-02T03:00:51;70.42;;;38.45;;
23346;SDS011;36852;45.466;11.066;2023-02-02T03:09:08;79.00;;;40.12;;
23346;SDS011;36852;45.466;11.066;2023-02-02T03:14:19;63.68;;;33.98;;
23346;SDS011;36852;45.466;11.066;2023-02-02T03:16:50;58.42;;;33.60;;
23346;SDS011;36852;45.466;11.066;2023-02-02T03:19:18;63.68;;;34.73;;
23346;SDS011;36852;45.466;11.066;2023-02-02T03:21:48;68.42;;;37.33;;
23346;SDS011;36852;45.466;11.066;2023-02-02T03:24:17;76.07;;;41.75;;
23346;SDS011;36852;45.466;11.066;2023-02-02T03:26:45;88.60;;;46.73;;
23346;SDS011;36852;45.466;11.066;2023-02-02T03:29:13;75.30;;;41.73;;
23346;SDS011;36852;45.466;11.066;2023-02-02T03:31:41;64.72;;;35.08;;
23346;SDS011;36852;45.466;11.066;2023-02-02T03:34:08;66.15;;;36.88;;
23346;SDS011;36852;45.466;11.066;2023-02-02T03:36:36;71.40;;;38.88;;
23346;SDS011;36852;45.466;11.066;2023-02-02T03:39:04;70.55;;;39.88;;
23346;SDS011;36852;45.466;11.066;2023-02-02T03:41:32;90.53;;;43.75;;
23346;SDS011;36852;45.466;11.066;2023-02-02T03:44:00;71.87;;;38.95;;
23346;SDS011;36852;45.466;11.066;2023-02-02T03:46:28;72.12;;;37.55;;
23346;SDS011;36852;45.466;11.066;2023-02-02T03:48:58;60.98;;;34.70;;
23346;SDS011;36852;45.466;11.066;2023-02-02T03:51:35;68.45;;;36.80;;
23346;SDS011;36852;45.466;11.066;2023-02-02T03:54:03;64.12;;;36.10;;
23346;SDS011;36852;45.466;11.066;2023-02-02T03:56:31;65.47;;;33.65;;
23346;SDS011;36852;45.466;11.066;2023-02-02T03:58:59;52.00;;;28.73;;
23346;SDS011;36852;45.466;11.066;2023-02-02T04:01:27;50.00;;;28.07;;
23346;SDS011;36852;45.466;11.066;2023-02-02T04:03:56;52.40;;;26.65;;
23346;SDS011;36852;45.466;11.066;2023-02-02T04:06:26;49.75;;;26.82;;
23346;SDS011;36852;45.466;11.066;2023-02-02T04:08:54;56.70;;;30.88;;
23346;SDS011;36852;45.466;11.066;2023-02-02T04:11:22;61.23;;;32.67;;
23346;SDS011;36852;45.466;11.066;2023-02-02T04:13:50;66.70;;;36.70;;
23346;SDS011;36852;45.466;11.066;2023-02-02T04:16:18;72.42;;;39.35;;
23346;SDS011;36852;45.466;11.066;2023-02-02T04:18:46;77.20;;;40.88;;
23346;SDS011;36852;45.466;11.066;2023-02-02T04:21:14;74.75;;;38.80;;
23346;SDS011;36852;45.466;11.066;2023-02-02T04:23:47;71.05;;;36.63;;
23346;SDS011;36852;45.466;11.066;2023-02-02T04:26:18;75.22;;;39.58;;
23346;SDS011;36852;45.466;11.066;2023-02-02T04:28:46;84.67;;;43.85;;
23346;SDS011;36852;45.466;11.066;2023-02-02T04:31:14;67.72;;;37.03;;
23346;SDS011;36852;45.466;11.066;2023-02-02T04:33:41;64.75;;;35.48;;
23346;SDS011;36852;45.466;11.066;2023-02-02T04:38:55;66.85;;;34.85;;
23346;SDS011;36852;45.466;11.066;2023-02-02T04:41:28;69.75;;;37.17;;
23346;SDS011;36852;45.466;11.066;2023-02-02T04:43:59;69.82;;;36.05;;
23346;SDS011;36852;45.466;11.066;2023-02-02T04:46:26;74.05;;;37.48;;
23346;SDS011;36852;45.466;11.066;2023-02-02T04:48:55;66.57;;;36.53;;
23346;SDS011;36852;45.466;11.066;2023-02-02T04:51:23;63.42;;;35.10;;
23346;SDS011;36852;45.466;11.066;2023-02-02T04:53:51;60.40;;;33.08;;
23346;SDS011;36852;45.466;11.066;2023-02-02T04:56:19;56.05;;;31.02;;
23346;SDS011;36852;45.466;11.066;2023-02-02T04:58:52;59.63;;;35.00;;
23346;SDS011;36852;45.466;11.066;2023-02-02T05:01:20;59.75;;;32.45;;
23346;SDS011;36852;45.466;11.066;2023-02-02T05:03:49;72.65;;;38.20;;
23346;SDS011;36852;45.466;11.066;2023-02-02T05:06:16;84.13;;;43.55;;
23346;SDS011;36852;45.466;11.066;2023-02-02T05:08:45;74.15;;;41.45;;
23346;SDS011;36852;45.466;11.066;2023-02-02T05:11:17;77.82;;;42.17;;
23346;SDS011;36852;45.466;11.066;2023-02-02T05:13:51;72.03;;;40.35;;
23346;SDS011;36852;45.466;11.066;2023-02-02T05:16:20;80.83;;;41.95;;
23346;SDS011;36852;45.466;11.066;2023-02-02T05:18:54;66.67;;;39.78;;
23346;SDS011;36852;45.466;11.066;2023-02-02T05:21:20;71.95;;;38.88;;
23346;SDS011;36852;45.466;11.066;2023-02-02T05:23:50;69.95;;;38.42;;
23346;SDS011;36852;45.466;11.066;2023-02-02T05:26:20;69.53;;;38.45;;
23346;SDS011;36852;45.466;11.066;2023-02-02T05:28:49;71.05;;;38.50;;
23346;SDS011;36852;45.466;11.066;2023-02-02T05:31:17;68.87;;;36.20;;
23346;SDS011;36852;45.466;11.066;2023-02-02T05:33:45;54.10;;;30.72;;
23346;SDS011;36852;45.466;11.066;2023-02-02T05:36:13;47.13;;;27.82;;
23346;SDS011;36852;45.466;11.066;2023-02-02T05:38:41;58.55;;;29.85;;
23346;SDS011;36852;45.466;11.066;2023-02-02T05:41:10;69.32;;;33.02;;
23346;SDS011;36852;45.466;11.066;2023-02-02T05:43:38;65.65;;;37.03;;
23346;SDS011;36852;45.466;11.066;2023-02-02T05:46:07;64.53;;;35.30;;
23346;SDS011;36852;45.466;11.066;2023-02-02T05:48:35;62.48;;;34.55;;
23346;SDS011;36852;45.466;11.066;2023-02-02T05:51:05;67.67;;;36.48;;
23346;SDS011;36852;45.466;11.066;2023-02-02T05:53:36;68.02;;;35.58;;
23346;SDS011;36852;45.466;11.066;2023-02-02T05:56:04;69.85;;;36.33;;
23346;SDS011;36852;45.466;11.066;2023-02-02T05:58:35;62.17;;;36.15;;
23346;SDS011;36852;45.466;11.066;2023-02-02T06:01:03;60.92;;;35.28;;
23346;SDS011;36852;45.466;11.066;2023-02-02T06:03:31;62.05;;;33.83;;
23346;SDS011;36852;45.466;11.066;2023-02-02T06:05:59;44.55;;;25.57;;
23346;SDS011;36852;45.466;11.066;2023-02-02T06:08:28;49.18;;;29.57;;
23346;SDS011;36852;45.466;11.066;2023-02-02T06:10:56;61.45;;;31.25;;
23346;SDS011;36852;45.466;11.066;2023-02-02T06:13:23;60.17;;;32.98;;
23346;SDS011;36852;45.466;11.066;2023-02-02T06:15:51;58.23;;;30.90;;
23346;SDS011;36852;45.466;11.066;2023-02-02T06:18:19;58.80;;;32.98;;
23346;SDS011;36852;45.466;11.066;2023-02-02T06:20:46;59.93;;;33.75;;
23346;SDS011;36852;45.466;11.066;2023-02-02T06:23:15;63.87;;;34.73;;
23346;SDS011;36852;45.466;11.066;2023-02-02T06:25:44;49.13;;;25.32;;
23346;SDS011;36852;45.466;11.066;2023-02-02T06:28:12;44.13;;;25.05;;
23346;SDS011;36852;45.466;11.066;2023-02-02T06:30:40;60.90;;;31.33;;
23346;SDS011;36852;45.466;11.066;2023-02-02T06:33:10;75.72;;;38.23;;
23346;SDS011;36852;45.466;11.066;2023-02-02T06:35:38;84.28;;;45.28;;
23346;SDS011;36852;45.466;11.066;2023-02-02T06:38:06;93.55;;;51.50;;
23346;SDS011;36852;45.466;11.066;2023-02-02T06:40:34;84.07;;;46.88;;
23346;SDS011;36852;45.466;11.066;2023-02-02T06:43:01;71.97;;;38.53;;
23346;SDS011;36852;45.466;11.066;2023-02-02T06:45:29;76.42;;;38.98;;
23346;SDS011;36852;45.466;11.066;2023-02-02T06:47:57;65.80;;;36.48;;
23346;SDS011;36852;45.466;11.066;2023-02-02T06:50:31;65.30;;;37.85;;
23346;SDS011;36852;45.466;11.066;2023-02-02T06:52:59;72.40;;;39.35;;
23346;SDS011;36852;45.466;11.066;2023-02-02T06:55:27;69.65;;;38.63;;
23346;SDS011;36852;45.466;11.066;2023-02-02T06:57:55;70.32;;;37.75;;
23346;SDS011;36852;45.466;11.066;2023-02-02T07:00:24;69.53;;;39.67;;
23346;SDS011;36852;45.466;11.066;2023-02-02T07:02:52;67.90;;;38.48;;
23346;SDS011;36852;45.466;11.066;2023-02-02T07:05:20;73.47;;;38.38;;
23346;SDS011;36852;45.466;11.066;2023-02-02T07:07:50;58.75;;;31.65;;
23346;SDS011;36852;45.466;11.066;2023-02-02T07:10:18;68.85;;;36.25;;
23346;SDS011;36852;45.466;11.066;2023-02-02T07:12:49;62.83;;;34.20;;
23346;SDS011;36852;45.466;11.066;2023-02-02T07:15:17;58.23;;;29.85;;
23346;SDS011;36852;45.466;11.066;2023-02-02T07:17:45;59.05;;;31.42;;
23346;SDS011;36852;45.466;11.066;2023-02-02T07:20:12;64.97;;;33.60;;
23346;SDS011;36852;45.466;11.066;2023-02-02T07:22:40;55.45;;;28.67;;
23346;SDS011;36852;45.466;11.066;2023-02-02T07:25:11;58.17;;;31.60;;
23346;SDS011;36852;45.466;11.066;2023-02-02T07:27:38;56.00;;;31.75;;
23346;SDS011;36852;45.466;11.066;2023-02-02T07:30:06;47.17;;;26.75;;
23346;SDS011;36852;45.466;11.066;2023-02-02T07:32:35;45.33;;;23.95;;
23346;SDS011;36852;45.466;11.066;2023-02-02T07:35:03;42.33;;;23.80;;
23346;SDS011;36852;45.466;11.066;2023-02-02T07:37:31;38.92;;;21.93;;
23346;SDS011;36852;45.466;11.066;2023-02-02T07:39:59;44.73;;;23.20;;
23346;SDS011;36852;45.466;11.066;2023-02-02T07:42:27;41.75;;;24.15;;
23346;SDS011;36852;45.466;11.066;2023-02-02T07:47:45;52.88;;;26.85;;
23346;SDS011;36852;45.466;11.066;2023-02-02T07:50:13;56.18;;;27.75;;
23346;SDS011;36852;45.466;11.066;2023-02-02T07:53:03;44.53;;;25.23;;
23346;SDS011;36852;45.466;11.066;2023-02-02T07:55:31;45.03;;;24.65;;
23346;SDS011;36852;45.466;11.066;2023-02-02T07:57:58;51.88;;;28.55;;
23346;SDS011;36852;45.466;11.066;2023-02-02T08:00:27;58.78;;;30.85;;
23346;SDS011;36852;45.466;11.066;2023-02-02T08:02:55;72.40;;;36.50;;
23346;SDS011;36852;45.466;11.066;2023-02-02T08:05:23;60.05;;;32.67;;
23346;SDS011;36852;45.466;11.066;2023-02-02T08:07:52;59.10;;;33.28;;
23346;SDS011;36852;45.466;11.066;2023-02-02T08:10:19;57.50;;;32.10;;
23346;SDS011;36852;45.466;11.066;2023-02-02T08:12:47;59.90;;;32.20;;
23346;SDS011;36852;45.466;11.066;2023-02-02T08:15:15;60.12;;;32.40;;
23346;SDS011;36852;45.466;11.066;2023-02-02T08:17:43;60.52;;;32.88;;
23346;SDS011;36852;45.466;11.066;2023-02-02T08:20:12;62.10;;;33.33;;
23346;SDS011;36852;45.466;11.066;2023-02-02T08:25:23;69.70;;;36.23;;
23346;SDS011;36852;45.466;11.066;2023-02-02T08:27:52;69.70;;;35.68;;
23346;SDS011;36852;45.466;11.066;2023-02-02T08:30:22;74.45;;;39.92;;
23346;SDS011;36852;45.466;11.066;2023-02-02T08:32:50;75.40;;;39.27;;
23346;SDS011;36852;45.466;11.066;2023-02-02T08:35:18;82.40;;;42.25;;
23346;SDS011;36852;45.466;11.066;2023-02-02T08:37:47;74.72;;;40.78;;
23346;SDS011;36852;45.466;11.066;2023-02-02T08:40:16;77.50;;;40.63;;
23346;SDS011;36852;45.466;11.066;2023-02-02T08:42:45;73.78;;;39.70;;
23346;SDS011;36852;45.466;11.066;2023-02-02T08:45:14;75.05;;;38.35;;
23346;SDS011;36852;45.466;11.066;2023-02-02T08:47:43;68.60;;;37.42;;
23346;SDS011;36852;45.466;11.066;2023-02-02T08:50:15;73.25;;;39.38;;
23346;SDS011;36852;45.466;11.066;2023-02-02T08:55:25;69.53;;;39.05;;
23346;SDS011;36852;45.466;11.066;2023-02-02T08:57:53;74.42;;;40.83;;
23346;SDS011;36852;45.466;11.066;2023-02-02T09:00:22;79.30;;;43.42;;
23346;SDS011;36852;45.466;11.066;2023-02-02T09:02:50;79.67;;;44.18;;
23346;SDS011;36852;45.466;11.066;2023-02-02T09:05:21;68.30;;;40.10;;
23346;SDS011;36852;45.466;11.066;2023-02-02T09:07:50;78.83;;;41.10;;
23346;SDS011;36852;45.466;11.066;2023-02-02T09:10:18;76.80;;;40.85;;
23346;SDS011;36852;45.466;11.066;2023-02-02T09:12:45;72.05;;;41.42;;
23346;SDS011;36852;45.466;11.066;2023-02-02T09:15:14;78.15;;;42.53;;
23346;SDS011;36852;45.466;11.066;2023-02-02T09:17:41;77.45;;;45.45;;
23346;SDS011;36852;45.466;11.066;2023-02-02T09:20:10;77.35;;;41.83;;
23346;SDS011;36852;45.466;11.066;2023-02-02T09:22:41;88.17;;;44.60;;
23346;SDS011;36852;45.466;11.066;2023-02-02T09:25:09;84.65;;;46.60;;
23346;SDS011;36852;45.466;11.066;2023-02-02T09:27:37;81.60;;;47.88;;
23346;SDS011;36852;45.466;11.066;2023-02-02T09:30:07;88.30;;;46.33;;
23346;SDS011;36852;45.466;11.066;2023-02-02T09:32:36;85.65;;;47.55;;
23346;SDS011;36852;45.466;11.066;2023-02-02T09:35:04;87.53;;;48.90;;
23346;SDS011;36852;45.466;11.066;2023-02-02T09:37:33;97.33;;;49.65;;
23346;SDS011;36852;45.466;11.066;2023-02-02T09:40:01;92.42;;;50.05;;
23346;SDS011;36852;45.466;11.066;2023-02-02T09:48:10;84.17;;;46.40;;
23346;SDS011;36852;45.466;11.066;2023-02-02T09:50:48;81.85;;;45.95;;
23346;SDS011;36852;45.466;11.066;2023-02-02T09:53:20;76.47;;;46.18;;
23346;SDS011;36852;45.466;11.066;2023-02-02T09:55:54;77.70;;;43.07;;
23346;SDS011;36852;45.466;11.066;2023-02-02T10:01:01;72.87;;;42.17;;
23346;SDS011;36852;45.466;11.066;2023-02-02T10:06:25;75.83;;;41.58;;
23346;SDS011;36852;45.466;11.066;2023-02-02T10:17:53;64.58;;;37.67;;
23346;SDS011;36852;45.466;11.066;2023-02-02T10:20:49;69.50;;;40.33;;
23346;SDS011;36852;45.466;11.066;2023-02-02T10:23:24;73.72;;;41.55;;
23346;SDS011;36852;45.466;11.066;2023-02-02T10:31:17;75.17;;;42.20;;
23346;SDS011;36852;45.466;11.066;2023-02-02T10:34:53;72.20;;;41.55;;
23346;SDS011;36852;45.466;11.066;2023-02-02T10:42:14;61.23;;;37.80;;
23346;SDS011;36852;45.466;11.066;2023-02-02T10:47:22;54.67;;;33.73;;
23346;SDS011;36852;45.466;11.066;2023-02-02T10:50:18;56.00;;;33.38;;
23346;SDS011;36852;45.466;11.066;2023-02-02T10:52:34;56.18;;;33.15;;
23346;SDS011;36852;45.466;11.066;2023-02-02T10:55:14;56.05;;;32.80;;
23346;SDS011;36852;45.466;11.066;2023-02-02T11:03:15;53.20;;;30.17;;
23346;SDS011;36852;45.466;11.066;2023-02-02T11:05:46;49.65;;;29.35;;
23346;SDS011;36852;45.466;11.066;2023-02-02T11:08:46;54.27;;;32.17;;
23346;SDS011;36852;45.466;11.066;2023-02-02T11:16:42;45.73;;;29.48;;
23346;SDS011;36852;45.466;11.066;2023-02-02T11:21:56;60.43;;;32.45;;
23346;SDS011;36852;45.466;11.066;2023-02-02T11:24:30;50.48;;;29.05;;
23346;SDS011;36852;45.466;11.066;2023-02-02T11:32:16;49.25;;;30.23;;
23346;SDS011;36852;45.466;11.066;2023-02-02T11:34:46;54.83;;;31.07;;
23346;SDS011;36852;45.466;11.066;2023-02-02T11:37:19;50.90;;;31.87;;
23346;SDS011;36852;45.466;11.066;2023-02-02T11:39:48;53.55;;;30.72;;
23346;SDS011;36852;45.466;11.066;2023-02-02T11:42:21;55.17;;;31.35;;
23346;SDS011;36852;45.466;11.066;2023-02-02T11:44:52;63.98;;;31.37;;
23346;SDS011;36852;45.466;11.066;2023-02-02T11:47:26;51.02;;;28.52;;
23346;SDS011;36852;45.466;11.066;2023-02-02T11:49:57;47.88;;;28.40;;
23346;SDS011;36852;45.466;11.066;2023-02-02T11:52:28;45.80;;;27.90;;
23346;SDS011;36852;45.466;11.066;2023-02-02T11:55:01;63.33;;;29.45;;
23346;SDS011;36852;45.466;11.066;2023-02-02T11:57:32;53.20;;;28.30;;
23346;SDS011;36852;45.466;11.066;2023-02-02T12:05:34;43.87;;;25.12;;
23346;SDS011;36852;45.466;11.066;2023-02-02T12:10:41;46.65;;;25.10;;
23346;SDS011;36852;45.466;11.066;2023-02-02T12:15:50;43.75;;;24.80;;
23346;SDS011;36852;45.466;11.066;2023-02-02T12:18:44;37.25;;;21.70;;
23346;SDS011;36852;45.466;11.066;2023-02-02T12:21:36;42.93;;;23.45;;
23346;SDS011;36852;45.466;11.066;2023-02-02T12:24:28;42.27;;;25.40;;
23346;SDS011;36852;45.466;11.066;2023-02-02T12:32:44;50.13;;;31.03;;
23346;SDS011;36852;45.466;11.066;2023-02-02T12:38:05;57.05;;;30.57;;
23346;SDS011;36852;45.466;11.066;2023-02-02T13:02:32;16.25;;;10.32;;
23346;SDS011;36852;45.466;11.066;2023-02-02T13:05:10;9.58;;;4.90;;
23346;SDS011;36852;45.466;11.066;2023-02-02T13:07:57;7.87;;;5.67;;
23346;SDS011;36852;45.466;11.066;2023-02-02T13:10:26;6.75;;;4.35;;
23346;SDS011;36852;45.466;11.066;2023-02-02T13:13:03;3.95;;;2.50;;
23346;SDS011;36852;45.466;11.066;2023-02-02T13:15:45;5.25;;;2.08;;
23346;SDS011;36852;45.466;11.066;2023-02-02T13:18:22;6.87;;;3.55;;
23346;SDS011;36852;45.466;11.066;2023-02-02T13:21:05;5.60;;;3.33;;
23346;SDS011;36852;45.466;11.066;2023-02-02T13:23:56;7.25;;;3.92;;
23346;SDS011;36852;45.466;11.066;2023-02-02T13:28:48;8.98;;;5.45;;
23346;SDS011;36852;45.466;11.066;2023-02-02T13:31:24;11.05;;;6.10;;
23346;SDS011;36852;45.466;11.066;2023-02-02T13:34:03;14.13;;;6.67;;
23346;SDS011;36852;45.466;11.066;2023-02-02T13:36:34;14.47;;;7.50;;
23346;SDS011;36852;45.466;11.066;2023-02-02T13:39:15;12.68;;;7.78;;
23346;SDS011;36852;45.466;11.066;2023-02-02T13:41:45;13.98;;;6.28;;
23346;SDS011;36852;45.466;11.066;2023-02-02T13:44:20;16.25;;;7.33;;
23346;SDS011;36852;45.466;11.066;2023-02-02T13:46:55;12.75;;;6.45;;
23346;SDS011;36852;45.466;11.066;2023-02-02T13:49:27;12.45;;;6.72;;
23346;SDS011;36852;45.466;11.066;2023-02-02T13:54:49;9.45;;;5.95;;
23346;SDS011;36852;45.466;11.066;2023-02-02T13:57:34;9.10;;;6.08;;
23346;SDS011;36852;45.466;11.066;2023-02-02T14:00:29;14.47;;;6.12;;
23346;SDS011;36852;45.466;11.066;2023-02-02T14:09:03;15.55;;;7.50;;
23346;SDS011;36852;45.466;11.066;2023-02-02T14:11:26;13.08;;;7.62;;
23346;SDS011;36852;45.466;11.066;2023-02-02T14:14:08;13.72;;;7.12;;
23346;SDS011;36852;45.466;11.066;2023-02-02T14:16:47;12.50;;;7.65;;
23346;SDS011;36852;45.466;11.066;2023-02-02T14:22:43;13.10;;;7.55;;
23346;SDS011;36852;45.466;11.066;2023-02-02T14:24:40;15.65;;;7.80;;
23346;SDS011;36852;45.466;11.066;2023-02-02T14:38:01;11.22;;;7.83;;
23346;SDS011;36852;45.466;11.066;2023-02-02T14:43:21;14.93;;;7.70;;
23346;SDS011;36852;45.466;11.066;2023-02-02T14:51:17;16.27;;;11.22;;
23346;SDS011;36852;45.466;11.066;2023-02-02T14:53:49;18.50;;;12.65;;
23346;SDS011;36852;45.466;11.066;2023-02-02T14:56:19;19.02;;;12.33;;
23346;SDS011;36852;45.466;11.066;2023-02-02T15:01:28;20.30;;;13.45;;
23346;SDS011;36852;45.466;11.066;2023-02-02T15:06:46;19.52;;;13.62;;
23346;SDS011;36852;45.466;11.066;2023-02-02T15:36:49;22.85;;;14.83;;
23346;SDS011;36852;45.466;11.066;2023-02-02T15:39:25;20.48;;;15.13;;
23346;SDS011;36852;45.466;11.066;2023-02-02T15:41:57;20.90;;;15.00;;
23346;SDS011;36852;45.466;11.066;2023-02-02T15:44:45;18.40;;;15.35;;
23346;SDS011;36852;45.466;11.066;2023-02-02T15:47:14;28.25;;;17.20;;
23346;SDS011;36852;45.466;11.066;2023-02-02T15:49:48;28.07;;;19.05;;
23346;SDS011;36852;45.466;11.066;2023-02-02T15:52:22;26.70;;;15.58;;
23346;SDS011;36852;45.466;11.066;2023-02-02T15:54:52;22.75;;;15.95;;
23346;SDS011;36852;45.466;11.066;2023-02-02T15:57:25;27.45;;;16.55;;
23346;SDS011;36852;45.466;11.066;2023-02-02T16:00:00;27.60;;;15.40;;
23346;SDS011;36852;45.466;11.066;2023-02-02T16:02:39;25.60;;;16.30;;
23346;SDS011;36852;45.466;11.066;2023-02-02T16:07:54;34.73;;;21.02;;
23346;SDS011;36852;45.466;11.066;2023-02-02T16:10:26;53.05;;;28.15;;
23346;SDS011;36852;45.466;11.066;2023-02-02T16:12:54;64.77;;;33.70;;
23346;SDS011;36852;45.466;11.066;2023-02-02T16:15:24;56.75;;;32.00;;
23346;SDS011;36852;45.466;11.066;2023-02-02T16:18:02;54.63;;;28.05;;
23346;SDS011;36852;45.466;11.066;2023-02-02T16:20:34;39.90;;;22.58;;
23346;SDS011;36852;45.466;11.066;2023-02-02T16:23:05;34.30;;;18.02;;
23346;SDS011;36852;45.466;11.066;2023-02-02T16:25:38;26.90;;;16.17;;
23346;SDS011;36852;45.466;11.066;2023-02-02T16:28:10;28.77;;;15.85;;
23346;SDS011;36852;45.466;11.066;2023-02-02T16:30:39;23.77;;;14.85;;
23346;SDS011;36852;45.466;11.066;2023-02-02T16:35:56;22.48;;;13.22;;
23346;SDS011;36852;45.466;11.066;2023-02-02T16:38:30;19.95;;;11.93;;
23346;SDS011;36852;45.466;11.066;2023-02-02T16:41:00;20.52;;;11.43;;
23346;SDS011;36852;45.466;11.066;2023-02-02T16:43:37;26.75;;;11.35;;
23346;SDS011;36852;45.466;11.066;2023-02-02T16:46:10;19.85;;;11.48;;
23346;SDS011;36852;45.466;11.066;2023-02-02T16:48:41;17.00;;;10.25;;
23346;SDS011;36852;45.466;11.066;2023-02-02T16:56:29;15.45;;;9.78;;
23346;SDS011;36852;45.466;11.066;2023-02-02T16:59:21;18.60;;;9.20;;
23346;SDS011;36852;45.466;11.066;2023-02-02T17:01:49;17.50;;;8.80;;
23346;SDS011;36852;45.466;11.066;2023-02-02T17:04:23;23.27;;;15.43;;
23346;SDS011;36852;45.466;11.066;2023-02-02T17:06:53;19.90;;;11.33;;
23346;SDS011;36852;45.466;11.066;2023-02-02T17:14:56;15.78;;;9.73;;
23346;SDS011;36852;45.466;11.066;2023-02-02T17:17:30;16.57;;;8.85;;
23346;SDS011;36852;45.466;11.066;2023-02-02T17:19:57;11.83;;;8.75;;
23346;SDS011;36852;45.466;11.066;2023-02-02T17:22:26;13.75;;;8.75;;
23346;SDS011;36852;45.466;11.066;2023-02-02T17:24:54;15.68;;;9.53;;
23346;SDS011;36852;45.466;11.066;2023-02-02T17:27:25;16.15;;;11.08;;
23346;SDS011;36852;45.466;11.066;2023-02-02T17:29:54;19.98;;;13.55;;
23346;SDS011;36852;45.466;11.066;2023-02-02T17:32:23;20.25;;;13.98;;
23346;SDS011;36852;45.466;11.066;2023-02-02T17:34:51;24.18;;;16.05;;
23346;SDS011;36852;45.466;11.066;2023-02-02T17:37:22;26.82;;;16.30;;
23346;SDS011;36852;45.466;11.066;2023-02-02T17:39:50;43.10;;;23.32;;
23346;SDS011;36852;45.466;11.066;2023-02-02T17:42:26;46.30;;;22.15;;
23346;SDS011;36852;45.466;11.066;2023-02-02T17:44:54;32.08;;;21.00;;
23346;SDS011;36852;45.466;11.066;2023-02-02T17:47:21;30.97;;;17.73;;
23346;SDS011;36852;45.466;11.066;2023-02-02T17:49:52;27.75;;;17.57;;
23346;SDS011;36852;45.466;11.066;2023-02-02T17:52:20;31.00;;;19.37;;
23346;SDS011;36852;45.466;11.066;2023-02-02T17:54:47;23.38;;;14.68;;
23346;SDS011;36852;45.466;11.066;2023-02-02T17:57:17;23.35;;;14.58;;
23346;SDS011;36852;45.466;11.066;2023-02-02T17:59:46;21.73;;;12.88;;
23346;SDS011;36852;45.466;11.066;2023-02-02T18:02:15;18.10;;;11.25;;
23346;SDS011;36852;45.466;11.066;2023-02-02T18:04:43;17.55;;;12.10;;
23346;SDS011;36852;45.466;11.066;2023-02-02T18:07:12;20.72;;;12.03;;
23346;SDS011;36852;45.466;11.066;2023-02-02T18:09:40;17.65;;;12.30;;